sensor_id;sensor_type;location;lat;lon;timestamp;temperature;humidity
8220;DHT22;4151;51.110;7.020;2023-01-19T00:00:02;0.80;99.90
8220;DHT22;4151;51.110;7.020;2023-01-19T00:02:28;0.80;99.90
8220;DHT22;4151;51.110;7.020;2023-01-19T00:04:53;0.80;99.90
8220;DHT22;4151;51.110;7.020;2023-01-19T00:07:19;0.90;99.90
8220;DHT22;4151;51.110;7.020;2023-01-19T00:09:44;0.90;99.90
8220;DHT22;4151;51.110;7.020;2023-01-19T00:12:10;0.90;99.90
8220;DHT22;4151;51.110;7.020;2023-01-19T00:14:35;1.00;99.90
8220;DHT22;4151;51.110;7.020;2023-01-19T00:17:01;1.00;99.90
8220;DHT22;4151;51.110;7.020;2023-01-19T00:19:27;1.00;99.90
8220;DHT22;4151;51.110;7.020;2023-01-19T00:21:53;1.00;99.90
8220;DHT22;4151;51.110;7.020;2023-01-19T00:24:18;1.10;99.90
8220;DHT22;4151;51.110;7.020;2023-01-19T00:26:44;1.20;99.90
8220;DHT22;4151;51.110;7.020;2023-01-19T00:29:10;1.20;99.90
8220;DHT22;4151;51.110;7.020;2023-01-19T00:31:36;1.20;99.90
8220;DHT22;4151;51.110;7.020;2023-01-19T00:34:03;1.20;99.90
8220;DHT22;4151;51.110;7.020;2023-01-19T00:36:28;1.20;99.90
8220;DHT22;4151;51.110;7.020;2023-01-19T00:38:54;1.30;99.90
8220;DHT22;4151;51.110;7.020;2023-01-19T00:41:20;1.30;99.90
8220;DHT22;4151;51.110;7.020;2023-01-19T00:44:05;1.20;99.90
8220;DHT22;4151;51.110;7.020;2023-01-19T00:46:31;1.30;99.90
8220;DHT22;4151;51.110;7.020;2023-01-19T00:48:57;1.30;99.90
8220;DHT22;4151;51.110;7.020;2023-01-19T00:51:22;1.30;99.90
8220;DHT22;4151;51.110;7.020;2023-01-19T00:53:49;1.30;99.90
8220;DHT22;4151;51.110;7.020;2023-01-19T00:56:15;1.30;99.90
8220;DHT22;4151;51.110;7.020;2023-01-19T00:58:40;1.40;99.90
8220;DHT22;4151;51.110;7.020;2023-01-19T01:01:06;1.30;99.90
8220;DHT22;4151;51.110;7.020;2023-01-19T01:03:31;1.30;99.90
8220;DHT22;4151;51.110;7.020;2023-01-19T01:05:57;1.30;99.90
8220;DHT22;4151;51.110;7.020;2023-01-19T01:08:23;1.30;99.90
8220;DHT22;4151;51.110;7.020;2023-01-19T01:10:49;1.20;99.90
8220;DHT22;4151;51.110;7.020;2023-01-19T01:13:15;1.20;99.90
8220;DHT22;4151;51.110;7.020;2023-01-19T01:15:41;1.00;99.90
8220;DHT22;4151;51.110;7.020;2023-01-19T01:18:07;1.00;99.90
8220;DHT22;4151;51.110;7.020;2023-01-19T01:20:33;1.00;99.90
8220;DHT22;4151;51.110;7.020;2023-01-19T01:22:59;1.00;99.90
8220;DHT22;4151;51.110;7.020;2023-01-19T01:25:26;1.00;99.90
8220;DHT22;4151;51.110;7.020;2023-01-19T01:27:53;1.10;99.90
8220;DHT22;4151;51.110;7.020;2023-01-19T01:30:20;1.10;99.90
8220;DHT22;4151;51.110;7.020;2023-01-19T01:32:45;1.20;99.90
8220;DHT22;4151;51.110;7.020;2023-01-19T01:35:11;1.10;99.90
8220;DHT22;4151;51.110;7.020;2023-01-19T01:37:38;1.20;99.90
8220;DHT22;4151;51.110;7.020;2023-01-19T01:40:05;1.20;99.90
8220;DHT22;4151;51.110;7.020;2023-01-19T01:42:31;1.20;99.90
8220;DHT22;4151;51.110;7.020;2023-01-19T01:44:59;1.20;99.90
8220;DHT22;4151;51.110;7.020;2023-01-19T01:47:40;1.30;99.90
8220;DHT22;4151;51.110;7.020;2023-01-19T01:52:34;1.30;99.90
8220;DHT22;4151;51.110;7.020;2023-01-19T01:55:02;1.30;99.90
8220;DHT22;4151;51.110;7.020;2023-01-19T01:57:32;1.30;99.90
8220;DHT22;4151;51.110;7.020;2023-01-19T01:59:58;1.30;99.90
8220;DHT22;4151;51.110;7.020;2023-01-19T02:02:27;1.40;99.90
8220;DHT22;4151;51.110;7.020;2023-01-19T02:05:32;1.40;99.90
8220;DHT22;4151;51.110;7.020;2023-01-19T02:08:17;1.40;99.90
8220;DHT22;4151;51.110;7.020;2023-01-19T02:11:03;1.40;99.90
8220;DHT22;4151;51.110;7.020;2023-01-19T02:13:48;1.40;99.90
8220;DHT22;4151;51.110;7.020;2023-01-19T02:16:15;1.50;99.90
8220;DHT22;4151;51.110;7.020;2023-01-19T02:18:41;1.40;99.90
8220;DHT22;4151;51.110;7.020;2023-01-19T02:24:03;1.40;99.90
8220;DHT22;4151;51.110;7.020;2023-01-19T02:26:35;1.40;99.90
8220;DHT22;4151;51.110;7.020;2023-01-19T02:29:06;1.40;99.90
8220;DHT22;4151;51.110;7.020;2023-01-19T02:31:34;1.40;99.90
8220;DHT22;4151;51.110;7.020;2023-01-19T02:34:01;1.40;99.90
8220;DHT22;4151;51.110;7.020;2023-01-19T02:39:01;1.40;99.90
8220;DHT22;4151;51.110;7.020;2023-01-19T02:41:31;1.50;99.90
8220;DHT22;4151;51.110;7.020;2023-01-19T02:43:58;1.40;99.90
8220;DHT22;4151;51.110;7.020;2023-01-19T02:46:25;1.40;99.90
8220;DHT22;4151;51.110;7.020;2023-01-19T02:48:50;1.40;99.90
8220;DHT22;4151;51.110;7.020;2023-01-19T02:51:20;1.50;99.90
8220;DHT22;4151;51.110;7.020;2023-01-19T02:53:55;1.40;99.90
8220;DHT22;4151;51.110;7.020;2023-01-19T03:07:12;1.50;99.90
8220;DHT22;4151;51.110;7.020;2023-01-19T03:09:48;1.60;99.90
8220;DHT22;4151;51.110;7.020;2023-01-19T03:12:42;1.60;99.90
8220;DHT22;4151;51.110;7.020;2023-01-19T03:17:50;1.60;99.90
8220;DHT22;4151;51.110;7.020;2023-01-19T03:20:21;1.70;99.90
8220;DHT22;4151;51.110;7.020;2023-01-19T03:22:52;1.70;99.90
8220;DHT22;4151;51.110;7.020;2023-01-19T03:25:21;1.70;99.90
8220;DHT22;4151;51.110;7.020;2023-01-19T03:27:47;1.70;99.90
8220;DHT22;4151;51.110;7.020;2023-01-19T03:30:17;1.70;99.90
8220;DHT22;4151;51.110;7.020;2023-01-19T03:32:52;1.70;99.90
8220;DHT22;4151;51.110;7.020;2023-01-19T03:35:21;1.70;99.90
8220;DHT22;4151;51.110;7.020;2023-01-19T03:37:50;1.80;99.90
8220;DHT22;4151;51.110;7.020;2023-01-19T03:40:17;1.80;99.90
8220;DHT22;4151;51.110;7.020;2023-01-19T03:42:43;1.80;99.90
8220;DHT22;4151;51.110;7.020;2023-01-19T03:45:10;1.80;99.90
8220;DHT22;4151;51.110;7.020;2023-01-19T03:47:37;1.70;99.90
8220;DHT22;4151;51.110;7.020;2023-01-19T03:50:06;1.80;99.90
8220;DHT22;4151;51.110;7.020;2023-01-19T03:52:33;1.80;99.90
8220;DHT22;4151;51.110;7.020;2023-01-19T03:55:00;1.70;99.90
8220;DHT22;4151;51.110;7.020;2023-01-19T03:57:26;1.70;99.90
8220;DHT22;4151;51.110;7.020;2023-01-19T03:59:51;1.70;99.90
8220;DHT22;4151;51.110;7.020;2023-01-19T04:02:18;1.70;99.90
8220;DHT22;4151;51.110;7.020;2023-01-19T04:04:43;1.70;99.90
8220;DHT22;4151;51.110;7.020;2023-01-19T04:07:09;1.70;99.90
8220;DHT22;4151;51.110;7.020;2023-01-19T04:09:35;1.70;99.90
8220;DHT22;4151;51.110;7.020;2023-01-19T04:12:01;1.70;99.90
8220;DHT22;4151;51.110;7.020;2023-01-19T04:14:28;1.70;99.90
8220;DHT22;4151;51.110;7.020;2023-01-19T04:16:53;1.70;99.90
8220;DHT22;4151;51.110;7.020;2023-01-19T04:19:19;1.70;99.90
8220;DHT22;4151;51.110;7.020;2023-01-19T04:21:47;1.70;99.90
8220;DHT22;4151;51.110;7.020;2023-01-19T04:24:13;1.60;99.90
8220;DHT22;4151;51.110;7.020;2023-01-19T04:26:39;1.60;99.90
8220;DHT22;4151;51.110;7.020;2023-01-19T04:29:05;1.60;99.90
8220;DHT22;4151;51.110;7.020;2023-01-19T04:31:30;1.60;99.90
8220;DHT22;4151;51.110;7.020;2023-01-19T04:33:56;1.60;99.90
8220;DHT22;4151;51.110;7.020;2023-01-19T04:36:22;1.60;99.90
8220;DHT22;4151;51.110;7.020;2023-01-19T04:38:47;1.60;99.90
8220;DHT22;4151;51.110;7.020;2023-01-19T04:41:13;1.60;99.90
8220;DHT22;4151;51.110;7.020;2023-01-19T04:43:39;1.60;99.90
8220;DHT22;4151;51.110;7.020;2023-01-19T04:46:05;1.50;99.90
8220;DHT22;4151;51.110;7.020;2023-01-19T04:48:31;1.50;99.90
8220;DHT22;4151;51.110;7.020;2023-01-19T04:50:57;1.40;99.90
8220;DHT22;4151;51.110;7.020;2023-01-19T04:53:22;1.40;99.90
8220;DHT22;4151;51.110;7.020;2023-01-19T04:55:52;1.20;99.90
8220;DHT22;4151;51.110;7.020;2023-01-19T04:58:19;1.20;99.90
8220;DHT22;4151;51.110;7.020;2023-01-19T05:00:44;1.10;99.90
8220;DHT22;4151;51.110;7.020;2023-01-19T05:03:10;1.00;99.90
8220;DHT22;4151;51.110;7.020;2023-01-19T05:05:35;1.00;99.90
8220;DHT22;4151;51.110;7.020;2023-01-19T05:08:01;1.00;99.90
8220;DHT22;4151;51.110;7.020;2023-01-19T05:10:27;1.00;99.90
8220;DHT22;4151;51.110;7.020;2023-01-19T05:12:53;1.00;99.90
8220;DHT22;4151;51.110;7.020;2023-01-19T05:15:18;1.00;99.90
8220;DHT22;4151;51.110;7.020;2023-01-19T05:17:44;1.00;99.90
8220;DHT22;4151;51.110;7.020;2023-01-19T05:20:11;1.00;99.90
8220;DHT22;4151;51.110;7.020;2023-01-19T05:22:37;0.90;99.90
8220;DHT22;4151;51.110;7.020;2023-01-19T05:25:04;0.90;99.90
8220;DHT22;4151;51.110;7.020;2023-01-19T05:27:30;0.90;99.90
8220;DHT22;4151;51.110;7.020;2023-01-19T05:29:56;0.80;99.90
8220;DHT22;4151;51.110;7.020;2023-01-19T05:32:21;0.70;99.90
8220;DHT22;4151;51.110;7.020;2023-01-19T05:34:47;0.70;99.90
8220;DHT22;4151;51.110;7.020;2023-01-19T05:37:12;0.60;99.90
8220;DHT22;4151;51.110;7.020;2023-01-19T05:39:38;0.60;99.90
8220;DHT22;4151;51.110;7.020;2023-01-19T05:42:04;0.50;99.90
8220;DHT22;4151;51.110;7.020;2023-01-19T05:44:29;0.50;99.90
8220;DHT22;4151;51.110;7.020;2023-01-19T05:46:55;0.50;99.90
8220;DHT22;4151;51.110;7.020;2023-01-19T05:49:20;0.50;99.90
8220;DHT22;4151;51.110;7.020;2023-01-19T05:51:46;0.50;99.90
8220;DHT22;4151;51.110;7.020;2023-01-19T05:54:13;0.50;99.90
8220;DHT22;4151;51.110;7.020;2023-01-19T05:56:42;0.50;99.90
8220;DHT22;4151;51.110;7.020;2023-01-19T05:59:08;0.40;99.90
8220;DHT22;4151;51.110;7.020;2023-01-19T06:01:34;0.40;99.90
8220;DHT22;4151;51.110;7.020;2023-01-19T06:04:01;0.40;99.90
8220;DHT22;4151;51.110;7.020;2023-01-19T06:06:26;0.40;99.90
8220;DHT22;4151;51.110;7.020;2023-01-19T06:08:52;0.40;99.90
8220;DHT22;4151;51.110;7.020;2023-01-19T06:11:18;0.40;99.90
8220;DHT22;4151;51.110;7.020;2023-01-19T06:13:43;0.40;99.90
8220;DHT22;4151;51.110;7.020;2023-01-19T06:16:09;0.40;99.90
8220;DHT22;4151;51.110;7.020;2023-01-19T06:18:35;0.40;99.90
8220;DHT22;4151;51.110;7.020;2023-01-19T06:21:08;0.40;99.90
8220;DHT22;4151;51.110;7.020;2023-01-19T06:23:35;0.40;99.90
8220;DHT22;4151;51.110;7.020;2023-01-19T06:26:01;0.50;99.90
8220;DHT22;4151;51.110;7.020;2023-01-19T06:28:27;0.40;99.90
8220;DHT22;4151;51.110;7.020;2023-01-19T06:30:54;0.40;99.90
8220;DHT22;4151;51.110;7.020;2023-01-19T06:33:21;0.40;99.90
8220;DHT22;4151;51.110;7.020;2023-01-19T06:35:48;0.40;99.90
8220;DHT22;4151;51.110;7.020;2023-01-19T06:38:14;0.50;99.90
8220;DHT22;4151;51.110;7.020;2023-01-19T06:40:41;0.50;99.90
8220;DHT22;4151;51.110;7.020;2023-01-19T06:43:07;0.40;99.90
8220;DHT22;4151;51.110;7.020;2023-01-19T06:45:33;0.40;99.90
8220;DHT22;4151;51.110;7.020;2023-01-19T06:47:59;0.40;99.90
8220;DHT22;4151;51.110;7.020;2023-01-19T06:50:24;0.40;99.90
8220;DHT22;4151;51.110;7.020;2023-01-19T06:52:50;0.40;99.90
8220;DHT22;4151;51.110;7.020;2023-01-19T06:55:16;0.40;99.90
8220;DHT22;4151;51.110;7.020;2023-01-19T06:57:42;0.40;99.90
8220;DHT22;4151;51.110;7.020;2023-01-19T07:00:10;0.40;99.90
8220;DHT22;4151;51.110;7.020;2023-01-19T07:02:42;0.40;99.90
8220;DHT22;4151;51.110;7.020;2023-01-19T07:05:08;0.40;99.90
8220;DHT22;4151;51.110;7.020;2023-01-19T07:07:35;0.40;99.90
8220;DHT22;4151;51.110;7.020;2023-01-19T07:10:01;0.40;99.90
8220;DHT22;4151;51.110;7.020;2023-01-19T07:12:26;0.40;99.90
8220;DHT22;4151;51.110;7.020;2023-01-19T07:14:52;0.40;99.90
8220;DHT22;4151;51.110;7.020;2023-01-19T07:17:18;0.50;99.90
8220;DHT22;4151;51.110;7.020;2023-01-19T07:19:44;0.50;99.90
8220;DHT22;4151;51.110;7.020;2023-01-19T07:22:10;0.50;99.90
8220;DHT22;4151;51.110;7.020;2023-01-19T07:24:36;0.50;99.90
8220;DHT22;4151;51.110;7.020;2023-01-19T07:27:02;0.50;99.90
8220;DHT22;4151;51.110;7.020;2023-01-19T07:29:29;0.50;99.90
8220;DHT22;4151;51.110;7.020;2023-01-19T07:31:54;0.50;99.90
8220;DHT22;4151;51.110;7.020;2023-01-19T07:34:20;0.50;99.90
8220;DHT22;4151;51.110;7.020;2023-01-19T07:36:46;0.50;99.90
8220;DHT22;4151;51.110;7.020;2023-01-19T07:39:12;0.40;99.90
8220;DHT22;4151;51.110;7.020;2023-01-19T07:41:37;0.40;99.90
8220;DHT22;4151;51.110;7.020;2023-01-19T07:44:03;0.50;99.90
8220;DHT22;4151;51.110;7.020;2023-01-19T07:46:29;0.50;99.90
8220;DHT22;4151;51.110;7.020;2023-01-19T07:48:54;0.50;99.90
8220;DHT22;4151;51.110;7.020;2023-01-19T07:51:20;0.50;99.90
8220;DHT22;4151;51.110;7.020;2023-01-19T07:53:48;0.50;99.90
8220;DHT22;4151;51.110;7.020;2023-01-19T07:56:14;0.50;99.90
8220;DHT22;4151;51.110;7.020;2023-01-19T07:58:40;0.60;99.90
8220;DHT22;4151;51.110;7.020;2023-01-19T08:01:10;0.50;99.90
8220;DHT22;4151;51.110;7.020;2023-01-19T08:03:36;0.60;99.90
8220;DHT22;4151;51.110;7.020;2023-01-19T08:06:02;0.50;99.90
8220;DHT22;4151;51.110;7.020;2023-01-19T08:08:30;0.60;99.90
8220;DHT22;4151;51.110;7.020;2023-01-19T08:10:55;0.60;99.90
8220;DHT22;4151;51.110;7.020;2023-01-19T08:13:21;0.70;99.90
8220;DHT22;4151;51.110;7.020;2023-01-19T08:15:50;0.70;99.90
8220;DHT22;4151;51.110;7.020;2023-01-19T08:18:17;0.70;99.90
8220;DHT22;4151;51.110;7.020;2023-01-19T08:20:42;0.70;99.90
8220;DHT22;4151;51.110;7.020;2023-01-19T08:23:08;0.70;99.90
8220;DHT22;4151;51.110;7.020;2023-01-19T08:25:36;0.70;99.90
8220;DHT22;4151;51.110;7.020;2023-01-19T08:28:03;0.70;99.90
8220;DHT22;4151;51.110;7.020;2023-01-19T08:30:29;0.80;99.90
8220;DHT22;4151;51.110;7.020;2023-01-19T08:32:55;0.80;99.90
8220;DHT22;4151;51.110;7.020;2023-01-19T08:35:37;0.80;99.90
8220;DHT22;4151;51.110;7.020;2023-01-19T08:38:03;0.80;99.90
8220;DHT22;4151;51.110;7.020;2023-01-19T08:40:30;0.80;99.90
8220;DHT22;4151;51.110;7.020;2023-01-19T08:43:09;0.90;99.90
8220;DHT22;4151;51.110;7.020;2023-01-19T08:45:36;0.90;99.90
8220;DHT22;4151;51.110;7.020;2023-01-19T08:48:04;0.90;99.90
8220;DHT22;4151;51.110;7.020;2023-01-19T08:50:31;0.90;99.90
8220;DHT22;4151;51.110;7.020;2023-01-19T08:52:59;0.90;99.90
8220;DHT22;4151;51.110;7.020;2023-01-19T08:55:25;0.90;99.90
8220;DHT22;4151;51.110;7.020;2023-01-19T08:57:52;0.90;99.90
8220;DHT22;4151;51.110;7.020;2023-01-19T09:00:19;0.90;99.90
8220;DHT22;4151;51.110;7.020;2023-01-19T09:02:45;0.90;99.90
8220;DHT22;4151;51.110;7.020;2023-01-19T09:05:11;0.90;99.90
8220;DHT22;4151;51.110;7.020;2023-01-19T09:07:37;0.90;99.90
8220;DHT22;4151;51.110;7.020;2023-01-19T09:10:03;0.90;99.90
8220;DHT22;4151;51.110;7.020;2023-01-19T09:12:29;0.90;99.90
8220;DHT22;4151;51.110;7.020;2023-01-19T09:14:55;0.90;99.90
8220;DHT22;4151;51.110;7.020;2023-01-19T09:17:20;1.00;99.90
8220;DHT22;4151;51.110;7.020;2023-01-19T09:19:46;1.00;99.90
8220;DHT22;4151;51.110;7.020;2023-01-19T09:22:11;1.00;99.90
8220;DHT22;4151;51.110;7.020;2023-01-19T09:24:37;1.00;99.90
8220;DHT22;4151;51.110;7.020;2023-01-19T09:27:02;1.00;99.90
8220;DHT22;4151;51.110;7.020;2023-01-19T09:29:28;1.10;99.90
8220;DHT22;4151;51.110;7.020;2023-01-19T09:31:54;1.10;99.90
8220;DHT22;4151;51.110;7.020;2023-01-19T09:34:19;1.10;99.90
8220;DHT22;4151;51.110;7.020;2023-01-19T09:36:47;1.10;99.90
8220;DHT22;4151;51.110;7.020;2023-01-19T09:39:12;1.20;99.90
8220;DHT22;4151;51.110;7.020;2023-01-19T09:41:41;1.20;99.90
8220;DHT22;4151;51.110;7.020;2023-01-19T09:44:15;1.20;99.90
8220;DHT22;4151;51.110;7.020;2023-01-19T09:46:42;1.20;99.90
8220;DHT22;4151;51.110;7.020;2023-01-19T09:49:35;1.30;99.90
8220;DHT22;4151;51.110;7.020;2023-01-19T09:52:03;1.30;99.90
8220;DHT22;4151;51.110;7.020;2023-01-19T09:54:40;1.30;99.90
8220;DHT22;4151;51.110;7.020;2023-01-19T09:57:11;1.40;99.90
8220;DHT22;4151;51.110;7.020;2023-01-19T09:59:38;1.40;99.90
8220;DHT22;4151;51.110;7.020;2023-01-19T10:09:38;1.40;99.90
8220;DHT22;4151;51.110;7.020;2023-01-19T10:15:38;1.50;99.90
8220;DHT22;4151;51.110;7.020;2023-01-19T10:18:22;1.50;99.90
8220;DHT22;4151;51.110;7.020;2023-01-19T10:21:05;1.60;99.90
8220;DHT22;4151;51.110;7.020;2023-01-19T10:23:48;1.60;99.90
8220;DHT22;4151;51.110;7.020;2023-01-19T10:28:46;1.70;99.90
8220;DHT22;4151;51.110;7.020;2023-01-19T10:31:14;1.60;99.90
8220;DHT22;4151;51.110;7.020;2023-01-19T10:33:41;1.70;99.90
8220;DHT22;4151;51.110;7.020;2023-01-19T10:36:33;1.70;99.90
8220;DHT22;4151;51.110;7.020;2023-01-19T10:38:59;1.70;99.90
8220;DHT22;4151;51.110;7.020;2023-01-19T10:41:42;1.70;99.90
8220;DHT22;4151;51.110;7.020;2023-01-19T10:44:08;1.70;99.90
8220;DHT22;4151;51.110;7.020;2023-01-19T10:46:47;1.70;99.90
8220;DHT22;4151;51.110;7.020;2023-01-19T10:49:27;1.70;99.90
8220;DHT22;4151;51.110;7.020;2023-01-19T10:51:55;1.70;99.90
8220;DHT22;4151;51.110;7.020;2023-01-19T10:54:21;1.70;99.90
8220;DHT22;4151;51.110;7.020;2023-01-19T10:57:11;1.70;99.90
8220;DHT22;4151;51.110;7.020;2023-01-19T11:02:16;1.70;99.90
8220;DHT22;4151;51.110;7.020;2023-01-19T11:04:43;1.90;99.90
8220;DHT22;4151;51.110;7.020;2023-01-19T11:22:17;1.90;99.90
8220;DHT22;4151;51.110;7.020;2023-01-19T11:24:46;1.90;99.90
8220;DHT22;4151;51.110;7.020;2023-01-19T11:27:16;1.90;99.90
8220;DHT22;4151;51.110;7.020;2023-01-19T11:29:47;1.90;99.90
8220;DHT22;4151;51.110;7.020;2023-01-19T11:32:20;1.90;99.90
8220;DHT22;4151;51.110;7.020;2023-01-19T11:34:47;2.00;99.90
8220;DHT22;4151;51.110;7.020;2023-01-19T11:37:34;2.00;99.90
8220;DHT22;4151;51.110;7.020;2023-01-19T11:40:00;2.00;99.90
8220;DHT22;4151;51.110;7.020;2023-01-19T11:42:31;2.00;99.90
8220;DHT22;4151;51.110;7.020;2023-01-19T11:45:12;2.00;99.90
8220;DHT22;4151;51.110;7.020;2023-01-19T11:47:43;1.90;99.90
8220;DHT22;4151;51.110;7.020;2023-01-19T11:52:41;1.80;99.90
8220;DHT22;4151;51.110;7.020;2023-01-19T11:55:18;1.90;99.90
8220;DHT22;4151;51.110;7.020;2023-01-19T11:57:49;1.90;99.90
8220;DHT22;4151;51.110;7.020;2023-01-19T12:05:43;2.00;99.90
8220;DHT22;4151;51.110;7.020;2023-01-19T12:08:15;2.00;99.90
8220;DHT22;4151;51.110;7.020;2023-01-19T12:10:44;2.00;99.90
8220;DHT22;4151;51.110;7.020;2023-01-19T12:13:24;2.00;99.90
8220;DHT22;4151;51.110;7.020;2023-01-19T12:16:00;2.10;99.90
8220;DHT22;4151;51.110;7.020;2023-01-19T12:18:42;2.10;99.90
8220;DHT22;4151;51.110;7.020;2023-01-19T12:21:09;2.10;99.90
8220;DHT22;4151;51.110;7.020;2023-01-19T12:26:29;2.10;99.90
8220;DHT22;4151;51.110;7.020;2023-01-19T12:29:10;2.10;99.90
8220;DHT22;4151;51.110;7.020;2023-01-19T12:31:36;2.20;99.90
8220;DHT22;4151;51.110;7.020;2023-01-19T12:34:35;2.20;99.90
8220;DHT22;4151;51.110;7.020;2023-01-19T12:37:04;2.20;99.90
8220;DHT22;4151;51.110;7.020;2023-01-19T12:39:31;2.20;99.90
8220;DHT22;4151;51.110;7.020;2023-01-19T12:42:16;2.30;99.90
8220;DHT22;4151;51.110;7.020;2023-01-19T12:44:43;2.30;99.90
8220;DHT22;4151;51.110;7.020;2023-01-19T12:57:32;2.50;99.90
8220;DHT22;4151;51.110;7.020;2023-01-19T13:00:03;2.50;99.90
8220;DHT22;4151;51.110;7.020;2023-01-19T13:02:40;2.60;99.90
8220;DHT22;4151;51.110;7.020;2023-01-19T13:11:11;2.70;99.90
8220;DHT22;4151;51.110;7.020;2023-01-19T13:21:24;2.70;99.90
8220;DHT22;4151;51.110;7.020;2023-01-19T13:23:53;2.70;99.90
8220;DHT22;4151;51.110;7.020;2023-01-19T13:26:26;2.80;99.90
8220;DHT22;4151;51.110;7.020;2023-01-19T13:29:06;2.80;99.90
8220;DHT22;4151;51.110;7.020;2023-01-19T13:31:38;2.90;99.90
8220;DHT22;4151;51.110;7.020;2023-01-19T13:34:12;2.90;99.90
8220;DHT22;4151;51.110;7.020;2023-01-19T13:36:45;3.00;99.90
8220;DHT22;4151;51.110;7.020;2023-01-19T13:39:15;3.00;99.90
8220;DHT22;4151;51.110;7.020;2023-01-19T13:41:41;3.00;99.90
8220;DHT22;4151;51.110;7.020;2023-01-19T13:44:25;2.90;99.90
8220;DHT22;4151;51.110;7.020;2023-01-19T13:46:52;2.90;99.90
8220;DHT22;4151;51.110;7.020;2023-01-19T13:49:29;2.90;99.90
8220;DHT22;4151;51.110;7.020;2023-01-19T13:52:23;2.90;99.90
8220;DHT22;4151;51.110;7.020;2023-01-19T13:54:57;2.90;99.90
8220;DHT22;4151;51.110;7.020;2023-01-19T13:57:38;2.80;99.90
8220;DHT22;4151;51.110;7.020;2023-01-19T14:02:39;2.80;99.90
8220;DHT22;4151;51.110;7.020;2023-01-19T14:05:19;2.80;99.90
8220;DHT22;4151;51.110;7.020;2023-01-19T14:07:45;2.70;99.90
8220;DHT22;4151;51.110;7.020;2023-01-19T14:10:13;2.70;99.90
8220;DHT22;4151;51.110;7.020;2023-01-19T14:12:39;2.70;99.90
8220;DHT22;4151;51.110;7.020;2023-01-19T14:15:08;2.70;99.90
8220;DHT22;4151;51.110;7.020;2023-01-19T14:17:39;2.70;99.90
8220;DHT22;4151;51.110;7.020;2023-01-19T14:20:05;2.60;99.90
8220;DHT22;4151;51.110;7.020;2023-01-19T14:22:42;2.70;99.90
8220;DHT22;4151;51.110;7.020;2023-01-19T14:28:24;2.70;99.90
8220;DHT22;4151;51.110;7.020;2023-01-19T14:30:58;2.70;99.90
8220;DHT22;4151;51.110;7.020;2023-01-19T14:33:41;2.70;99.90
8220;DHT22;4151;51.110;7.020;2023-01-19T14:38:45;2.70;99.90
8220;DHT22;4151;51.110;7.020;2023-01-19T14:41:12;2.70;99.90
8220;DHT22;4151;51.110;7.020;2023-01-19T14:43:46;2.70;99.90
8220;DHT22;4151;51.110;7.020;2023-01-19T14:46:19;2.70;99.90
8220;DHT22;4151;51.110;7.020;2023-01-19T14:48:46;2.60;99.90
8220;DHT22;4151;51.110;7.020;2023-01-19T14:51:17;2.60;99.90
8220;DHT22;4151;51.110;7.020;2023-01-19T14:53:52;2.60;99.90
8220;DHT22;4151;51.110;7.020;2023-01-19T14:56:27;2.60;99.90
8220;DHT22;4151;51.110;7.020;2023-01-19T14:58:58;2.50;99.90
8220;DHT22;4151;51.110;7.020;2023-01-19T15:01:25;2.50;99.90
8220;DHT22;4151;51.110;7.020;2023-01-19T15:03:53;2.50;99.90
8220;DHT22;4151;51.110;7.020;2023-01-19T15:06:22;2.50;99.90
8220;DHT22;4151;51.110;7.020;2023-01-19T15:08:48;2.50;99.90
8220;DHT22;4151;51.110;7.020;2023-01-19T15:11:33;2.50;99.90
8220;DHT22;4151;51.110;7.020;2023-01-19T15:14:00;2.50;99.90
8220;DHT22;4151;51.110;7.020;2023-01-19T15:16:27;2.50;99.90
8220;DHT22;4151;51.110;7.020;2023-01-19T15:18:53;2.40;99.90
8220;DHT22;4151;51.110;7.020;2023-01-19T15:21:20;2.40;99.90
8220;DHT22;4151;51.110;7.020;2023-01-19T15:23:51;2.40;99.90
8220;DHT22;4151;51.110;7.020;2023-01-19T15:26:19;2.40;99.90
8220;DHT22;4151;51.110;7.020;2023-01-19T15:28:45;2.30;99.90
8220;DHT22;4151;51.110;7.020;2023-01-19T15:31:18;2.30;99.90
8220;DHT22;4151;51.110;7.020;2023-01-19T15:33:44;2.20;99.90
8220;DHT22;4151;51.110;7.020;2023-01-19T15:36:14;2.20;99.90
8220;DHT22;4151;51.110;7.020;2023-01-19T15:38:40;2.10;99.90
8220;DHT22;4151;51.110;7.020;2023-01-19T15:41:26;2.10;99.90
8220;DHT22;4151;51.110;7.020;2023-01-19T15:43:52;2.10;99.90
8220;DHT22;4151;51.110;7.020;2023-01-19T15:46:19;2.10;99.90
8220;DHT22;4151;51.110;7.020;2023-01-19T15:48:50;2.00;99.90
8220;DHT22;4151;51.110;7.020;2023-01-19T15:51:19;2.00;99.90
8220;DHT22;4151;51.110;7.020;2023-01-19T15:53:45;2.00;99.90
8220;DHT22;4151;51.110;7.020;2023-01-19T15:56:20;2.00;99.90
8220;DHT22;4151;51.110;7.020;2023-01-19T15:58:46;1.90;99.90
8220;DHT22;4151;51.110;7.020;2023-01-19T16:01:13;2.00;99.90
8220;DHT22;4151;51.110;7.020;2023-01-19T16:03:39;1.90;99.90
8220;DHT22;4151;51.110;7.020;2023-01-19T16:06:06;2.00;99.90
8220;DHT22;4151;51.110;7.020;2023-01-19T16:08:31;2.00;99.90
8220;DHT22;4151;51.110;7.020;2023-01-19T16:11:02;2.00;99.90
8220;DHT22;4151;51.110;7.020;2023-01-19T16:13:28;2.00;99.90
8220;DHT22;4151;51.110;7.020;2023-01-19T16:15:55;2.00;99.90
8220;DHT22;4151;51.110;7.020;2023-01-19T16:18:20;2.00;99.90
8220;DHT22;4151;51.110;7.020;2023-01-19T16:20:46;2.00;99.90
8220;DHT22;4151;51.110;7.020;2023-01-19T16:23:11;2.00;99.90
8220;DHT22;4151;51.110;7.020;2023-01-19T16:25:37;2.00;99.90
8220;DHT22;4151;51.110;7.020;2023-01-19T16:28:03;2.00;99.90
8220;DHT22;4151;51.110;7.020;2023-01-19T16:30:28;2.00;99.90
8220;DHT22;4151;51.110;7.020;2023-01-19T16:32:54;2.00;99.90
8220;DHT22;4151;51.110;7.020;2023-01-19T16:35:19;2.00;99.90
8220;DHT22;4151;51.110;7.020;2023-01-19T16:37:49;2.00;99.90
8220;DHT22;4151;51.110;7.020;2023-01-19T16:40:14;2.00;99.90
8220;DHT22;4151;51.110;7.020;2023-01-19T16:42:40;2.10;99.90
8220;DHT22;4151;51.110;7.020;2023-01-19T16:45:06;2.00;99.90
8220;DHT22;4151;51.110;7.020;2023-01-19T16:47:32;1.90;99.90
8220;DHT22;4151;51.110;7.020;2023-01-19T16:49:57;1.90;99.90
8220;DHT22;4151;51.110;7.020;2023-01-19T16:52:23;1.60;99.90
8220;DHT22;4151;51.110;7.020;2023-01-19T16:54:48;1.50;99.90
8220;DHT22;4151;51.110;7.020;2023-01-19T16:57:14;1.40;99.90
8220;DHT22;4151;51.110;7.020;2023-01-19T16:59:39;1.40;99.90
8220;DHT22;4151;51.110;7.020;2023-01-19T17:02:06;1.40;99.90
8220;DHT22;4151;51.110;7.020;2023-01-19T17:04:31;1.40;99.90
8220;DHT22;4151;51.110;7.020;2023-01-19T17:06:57;1.40;99.90
8220;DHT22;4151;51.110;7.020;2023-01-19T17:09:22;1.40;99.90
8220;DHT22;4151;51.110;7.020;2023-01-19T17:11:48;1.50;99.90
8220;DHT22;4151;51.110;7.020;2023-01-19T17:14:16;1.50;99.90
8220;DHT22;4151;51.110;7.020;2023-01-19T17:16:44;1.60;99.90
8220;DHT22;4151;51.110;7.020;2023-01-19T17:19:13;1.60;99.90
8220;DHT22;4151;51.110;7.020;2023-01-19T17:21:39;1.70;99.90
8220;DHT22;4151;51.110;7.020;2023-01-19T17:24:05;1.70;99.90
8220;DHT22;4151;51.110;7.020;2023-01-19T17:26:31;1.70;99.90
8220;DHT22;4151;51.110;7.020;2023-01-19T17:29:00;1.70;99.90
8220;DHT22;4151;51.110;7.020;2023-01-19T17:31:27;1.70;99.90
8220;DHT22;4151;51.110;7.020;2023-01-19T17:33:52;1.80;99.90
8220;DHT22;4151;51.110;7.020;2023-01-19T17:36:21;1.80;99.90
8220;DHT22;4151;51.110;7.020;2023-01-19T17:38:48;1.80;99.90
8220;DHT22;4151;51.110;7.020;2023-01-19T17:41:23;1.80;99.90
8220;DHT22;4151;51.110;7.020;2023-01-19T17:43:49;1.80;99.90
8220;DHT22;4151;51.110;7.020;2023-01-19T17:46:16;1.80;99.90
8220;DHT22;4151;51.110;7.020;2023-01-19T17:48:42;1.80;99.90
8220;DHT22;4151;51.110;7.020;2023-01-19T17:51:10;1.80;99.90
8220;DHT22;4151;51.110;7.020;2023-01-19T17:53:37;1.80;99.90
8220;DHT22;4151;51.110;7.020;2023-01-19T17:56:14;1.80;99.90
8220;DHT22;4151;51.110;7.020;2023-01-19T17:58:40;1.80;99.90
8220;DHT22;4151;51.110;7.020;2023-01-19T18:01:08;1.80;99.90